Time;durP1;ratioP1;P1;durP2;ratioP2;P2;SDS_P1;SDS_P2;PMS_P1;PMS_P2;Temp;Humidity;BMP_temperature;BMP_pressure;BME280_temperature;BME280_humidity;BME280_pressure;Samples;Min_cycle;Max_cycle;Signal;HPM_P1;HPM_P2
2021/11/16 00:02:01;;;;;;;23.65;11.90;;;;;;;;;;4989836;28;20014;-70
2021/11/16 00:04:26;;;;;;;23.40;10.82;;;;;;;;;;5004992;28;20467;-72
2021/11/16 00:06:53;;;;;;;26.42;13.38;;;;;;;;;;4989103;28;20121;-70
2021/11/16 00:09:18;;;;;;;27.42;13.05;;;;;;;;;;4990377;28;20022;-70
2021/11/16 00:11:44;;;;;;;26.10;13.60;;;;;;;;;;4988884;28;20049;-70
2021/11/16 00:14:09;;;;;;;34.25;15.25;;;;;;;;;;4989910;28;20064;-70
2021/11/16 00:16:37;;;;;;;31.00;14.25;;;;;;;;;;4989849;28;20054;-71
2021/11/16 00:19:03;;;;;;;25.98;12.63;;;;;;;;;;4990201;28;20019;-71
2021/11/16 00:21:28;;;;;;;29.58;13.98;;;;;;;;;;4989066;28;20109;-72
2021/11/16 00:23:57;;;;;;;30.65;14.68;;;;;;;;;;4989946;28;20177;-70
2021/11/16 00:26:23;;;;;;;32.95;14.38;;;;;;;;;;4992125;28;20031;-70
2021/11/16 00:28:48;;;;;;;30.08;14.10;;;;;;;;;;4993362;28;20068;-70
2021/11/16 00:31:14;;;;;;;29.80;15.77;;;;;;;;;;4993339;28;20463;-72
2021/11/16 00:33:39;;;;;;;27.98;14.30;;;;;;;;;;4993292;28;20493;-72
2021/11/16 00:36:04;;;;;;;28.33;11.88;;;;;;;;;;4993727;28;20038;-70
2021/11/16 00:38:30;;;;;;;30.30;13.57;;;;;;;;;;4993153;28;20434;-70
2021/11/16 00:40:55;;;;;;;29.38;10.93;;;;;;;;;;4993028;28;20466;-72
2021/11/16 00:43:21;;;;;;;31.05;14.30;;;;;;;;;;4992501;28;20057;-70
2021/11/16 00:45:46;;;;;;;30.60;14.27;;;;;;;;;;4992767;28;20077;-70
2021/11/16 00:48:13;;;;;;;27.48;14.00;;;;;;;;;;4993054;28;20015;-71
2021/11/16 00:50:39;;;;;;;34.28;14.75;;;;;;;;;;4992882;28;20393;-71
2021/11/16 00:53:05;;;;;;;31.67;15.35;;;;;;;;;;4993085;28;20029;-71
2021/11/16 00:55:30;;;;;;;31.20;13.88;;;;;;;;;;4992766;28;20027;-70
2021/11/16 00:57:55;;;;;;;33.97;14.15;;;;;;;;;;4992371;28;20026;-70
2021/11/16 01:00:21;;;;;;;29.70;13.63;;;;;;;;;;4992387;28;20035;-70
2021/11/16 01:02:46;;;;;;;28.67;13.82;;;;;;;;;;4991257;28;20442;-71
2021/11/16 01:05:12;;;;;;;27.98;14.05;;;;;;;;;;4992618;28;20121;-70
2021/11/16 01:07:38;;;;;;;33.50;14.85;;;;;;;;;;4992562;28;20034;-70
2021/11/16 01:10:04;;;;;;;28.95;13.98;;;;;;;;;;4993031;28;20083;-72
2021/11/16 01:12:29;;;;;;;30.40;13.55;;;;;;;;;;4991687;28;20027;-70
2021/11/16 01:14:57;;;;;;;30.58;13.85;;;;;;;;;;4992826;28;20097;-72
2021/11/16 01:17:22;;;;;;;29.52;12.95;;;;;;;;;;4992438;28;20109;-70
2021/11/16 01:19:47;;;;;;;29.23;13.43;;;;;;;;;;4992475;28;20161;-70
2021/11/16 01:22:14;;;;;;;30.55;13.13;;;;;;;;;;4992247;28;20467;-72
2021/11/16 01:24:40;;;;;;;29.75;13.63;;;;;;;;;;5005129;28;20026;-73
2021/11/16 01:27:07;;;;;;;33.40;13.82;;;;;;;;;;4992687;28;20031;-70
2021/11/16 01:29:32;;;;;;;35.63;16.92;;;;;;;;;;4993075;28;20029;-70
2021/11/16 01:31:58;;;;;;;32.95;15.45;;;;;;;;;;4992002;28;20019;-72
2021/11/16 01:34:28;;;;;;;33.60;15.95;;;;;;;;;;4992728;28;20021;-72
2021/11/16 01:36:53;;;;;;;29.50;15.18;;;;;;;;;;4987449;28;20057;-70
2021/11/16 01:39:18;;;;;;;30.83;13.75;;;;;;;;;;4992693;28;20054;-70
2021/11/16 01:41:44;;;;;;;31.95;14.13;;;;;;;;;;5006467;28;20033;-70
2021/11/16 01:44:09;;;;;;;35.45;15.60;;;;;;;;;;4992227;28;20022;-70
2021/11/16 01:46:34;;;;;;;28.38;13.95;;;;;;;;;;4992249;28;20080;-70
2021/11/16 01:48:59;;;;;;;31.73;14.43;;;;;;;;;;4992354;28;20138;-70
2021/11/16 01:51:26;;;;;;;35.00;15.05;;;;;;;;;;4984678;28;20046;-70
2021/11/16 01:53:53;;;;;;;34.17;15.15;;;;;;;;;;4989978;28;20073;-72
2021/11/16 01:56:18;;;;;;;31.15;14.40;;;;;;;;;;4992086;28;20046;-70
2021/11/16 01:58:44;;;;;;;31.40;13.60;;;;;;;;;;4991888;28;20054;-70
2021/11/16 02:01:09;;;;;;;31.67;15.30;;;;;;;;;;4991637;28;20014;-70
2021/11/16 02:03:35;;;;;;;32.88;15.25;;;;;;;;;;4991854;28;20474;-70
2021/11/16 02:06:15;;;;;;;35.30;16.48;;;;;;;;;;5016897;22;20050;-69
2021/11/16 02:08:40;;;;;;;31.90;14.73;;;;;;;;;;5003546;28;20037;-69
2021/11/16 02:11:05;;;;;;;31.15;13.30;;;;;;;;;;5006830;28;20202;-68
2021/11/16 02:13:31;;;;;;;34.78;15.52;;;;;;;;;;5003191;28;20089;-67
2021/11/16 02:15:56;;;;;;;36.45;14.75;;;;;;;;;;4986033;28;20022;-65
2021/11/16 02:18:22;;;;;;;34.28;15.57;;;;;;;;;;4980571;28;20026;-65
2021/11/16 02:20:48;;;;;;;31.08;13.80;;;;;;;;;;4977436;28;20027;-65
2021/11/16 02:23:13;;;;;;;29.58;13.57;;;;;;;;;;4982692;28;20375;-65
2021/11/16 02:25:39;;;;;;;31.48;14.32;;;;;;;;;;4979251;28;20019;-65
2021/11/16 02:28:06;;;;;;;29.70;12.90;;;;;;;;;;4979468;28;20414;-65
2021/11/16 02:30:31;;;;;;;28.45;13.15;;;;;;;;;;4971589;28;20359;-65
2021/11/16 02:32:56;;;;;;;33.35;14.63;;;;;;;;;;4973112;28;20027;-66
2021/11/16 02:35:24;;;;;;;37.63;16.17;;;;;;;;;;4973996;28;20102;-65
2021/11/16 02:37:50;;;;;;;32.65;15.48;;;;;;;;;;4972786;28;20026;-65
2021/11/16 02:40:15;;;;;;;36.50;16.23;;;;;;;;;;4975654;28;20018;-66
2021/11/16 02:42:41;;;;;;;36.10;16.98;;;;;;;;;;4976735;28;20114;-65
2021/11/16 02:45:08;;;;;;;32.50;16.05;;;;;;;;;;4973174;28;20110;-65
2021/11/16 02:47:33;;;;;;;36.10;15.82;;;;;;;;;;4972831;28;20033;-65
2021/11/16 02:49:58;;;;;;;31.92;14.30;;;;;;;;;;4975304;28;20030;-66
2021/11/16 02:52:23;;;;;;;34.10;15.80;;;;;;;;;;4981691;28;20054;-65
2021/11/16 02:54:50;;;;;;;31.90;14.02;;;;;;;;;;4975464;28;20030;-65
2021/11/16 02:57:15;;;;;;;30.88;13.93;;;;;;;;;;4974577;28;20019;-64
2021/11/16 02:59:41;;;;;;;32.22;13.43;;;;;;;;;;4979300;28;20093;-66
2021/11/16 03:02:06;;;;;;;34.40;13.55;;;;;;;;;;4972141;28;20030;-64
2021/11/16 03:04:33;;;;;;;28.52;12.02;;;;;;;;;;4981589;28;20110;-64
2021/11/16 03:06:59;;;;;;;30.05;13.45;;;;;;;;;;4978217;28;20037;-67
2021/11/16 03:09:25;;;;;;;30.15;12.60;;;;;;;;;;4971583;28;20098;-65
2021/11/16 03:11:50;;;;;;;38.33;14.68;;;;;;;;;;4970971;28;20069;-65
2021/11/16 03:14:15;;;;;;;39.78;14.20;;;;;;;;;;4982464;28;20371;-65
2021/11/16 03:16:41;;;;;;;30.42;13.23;;;;;;;;;;4972851;28;20372;-66
2021/11/16 03:19:06;;;;;;;36.67;14.43;;;;;;;;;;4981663;28;20058;-66
2021/11/16 03:21:32;;;;;;;35.17;15.32;;;;;;;;;;4971418;28;20050;-65
2021/11/16 03:23:58;;;;;;;37.33;16.42;;;;;;;;;;4973422;28;20030;-65
2021/11/16 03:26:25;;;;;;;32.20;14.18;;;;;;;;;;4978590;28;20022;-66
2021/11/16 03:28:51;;;;;;;37.33;15.07;;;;;;;;;;4977350;28;20026;-65
2021/11/16 03:31:21;;;;;;;36.25;15.25;;;;;;;;;;4976064;28;20117;-65
2021/11/16 03:33:50;;;;;;;39.05;15.20;;;;;;;;;;4980677;28;20022;-66
2021/11/16 03:36:16;;;;;;;32.40;13.18;;;;;;;;;;4989655;28;20035;-66
2021/11/16 03:38:43;;;;;;;34.30;12.38;;;;;;;;;;4971240;28;20568;-65
2021/11/16 03:41:08;;;;;;;29.60;12.60;;;;;;;;;;4978386;28;20022;-66
2021/11/16 03:43:34;;;;;;;32.40;11.98;;;;;;;;;;4983237;28;20494;-65
2021/11/16 03:46:00;;;;;;;32.20;12.52;;;;;;;;;;4970616;28;20046;-65
2021/11/16 03:48:25;;;;;;;37.05;15.52;;;;;;;;;;4988598;28;20491;-65
2021/11/16 03:50:51;;;;;;;32.95;12.43;;;;;;;;;;4990855;28;20081;-65
2021/11/16 03:53:16;;;;;;;32.13;14.48;;;;;;;;;;4973273;28;20058;-66
2021/11/16 03:55:42;;;;;;;27.40;12.50;;;;;;;;;;4974590;28;20384;-65
2021/11/16 03:58:08;;;;;;;34.85;14.25;;;;;;;;;;4978194;28;20026;-65
2021/11/16 04:00:35;;;;;;;29.13;12.93;;;;;;;;;;4986811;28;20467;-65
2021/11/16 04:03:02;;;;;;;37.28;13.00;;;;;;;;;;4987216;28;20033;-65
2021/11/16 04:05:27;;;;;;;31.42;13.00;;;;;;;;;;4989190;28;20043;-65
2021/11/16 04:07:53;;;;;;;35.22;13.10;;;;;;;;;;4974686;28;20062;-67
2021/11/16 04:10:19;;;;;;;34.10;13.73;;;;;;;;;;4982657;28;20363;-66
2021/11/16 04:12:45;;;;;;;33.78;12.75;;;;;;;;;;4992884;28;20078;-65
2021/11/16 04:15:11;;;;;;;39.67;15.15;;;;;;;;;;4979583;28;20467;-65
2021/11/16 04:17:40;;;;;;;35.10;14.13;;;;;;;;;;4975887;28;20386;-66
2021/11/16 04:20:09;;;;;;;35.28;13.65;;;;;;;;;;4993446;28;20105;-67
2021/11/16 04:22:36;;;;;;;32.50;12.68;;;;;;;;;;4989246;28;20018;-65
2021/11/16 04:25:02;;;;;;;29.25;13.10;;;;;;;;;;4974206;28;20081;-66
2021/11/16 04:27:27;;;;;;;36.65;14.88;;;;;;;;;;4989475;28;20061;-66
2021/11/16 04:29:53;;;;;;;33.05;13.20;;;;;;;;;;4989602;28;20043;-65
2021/11/16 04:32:18;;;;;;;32.10;13.50;;;;;;;;;;4993288;28;20029;-65
2021/11/16 04:34:44;;;;;;;30.38;12.90;;;;;;;;;;4985017;28;20406;-65
2021/11/16 04:37:09;;;;;;;34.08;13.70;;;;;;;;;;4978489;28;20456;-65
2021/11/16 04:39:34;;;;;;;31.70;14.50;;;;;;;;;;4981661;28;20022;-65
2021/11/16 04:41:59;;;;;;;42.17;15.40;;;;;;;;;;4979449;28;20394;-65
2021/11/16 04:44:25;;;;;;;32.35;13.43;;;;;;;;;;4990192;28;20564;-65
2021/11/16 04:46:50;;;;;;;40.88;14.63;;;;;;;;;;4983057;28;20034;-65
2021/11/16 04:49:59;;;;;;;35.20;15.68;;;;;;;;;;4980585;28;20019;-65
2021/11/16 05:02:35;;;;;;;39.10;14.70;;;;;;;;;;4977748;28;20193;-67
2021/11/16 05:05:02;;;;;;;35.10;15.10;;;;;;;;;;4982521;28;20023;-66
2021/11/16 05:07:29;;;;;;;35.22;15.32;;;;;;;;;;4973828;28;20030;-65
2021/11/16 05:09:56;;;;;;;43.80;15.63;;;;;;;;;;4975543;28;20019;-66
2021/11/16 05:12:22;;;;;;;37.42;13.13;;;;;;;;;;4977201;28;20030;-65
2021/11/16 05:14:47;;;;;;;41.10;15.48;;;;;;;;;;4980460;28;20029;-65
2021/11/16 05:17:13;;;;;;;38.03;15.80;;;;;;;;;;4983182;28;20382;-66
2021/11/16 05:19:39;;;;;;;38.92;16.02;;;;;;;;;;4973957;28;20592;-65
2021/11/16 05:22:04;;;;;;;37.13;15.75;;;;;;;;;;4979409;28;20028;-65
2021/11/16 05:24:30;;;;;;;52.10;16.58;;;;;;;;;;4973956;28;20460;-64
2021/11/16 05:26:55;;;;;;;38.45;15.77;;;;;;;;;;4976032;28;20050;-64
2021/11/16 05:29:20;;;;;;;35.20;15.10;;;;;;;;;;4972902;28;20023;-65
2021/11/16 05:31:46;;;;;;;41.92;16.20;;;;;;;;;;4973047;28;20018;-64
2021/11/16 05:34:11;;;;;;;41.17;16.30;;;;;;;;;;4973774;28;20027;-64
2021/11/16 05:36:36;;;;;;;37.60;15.68;;;;;;;;;;4988129;28;20081;-65
2021/11/16 05:39:02;;;;;;;44.08;16.38;;;;;;;;;;4983187;28;20037;-64
2021/11/16 05:41:27;;;;;;;42.40;17.00;;;;;;;;;;4984590;28;20085;-64
2021/11/16 05:43:52;;;;;;;48.53;18.40;;;;;;;;;;4979354;28;20494;-64
2021/11/16 05:46:22;;;;;;;43.42;17.45;;;;;;;;;;4991462;28;20069;-64
2021/11/16 05:48:48;;;;;;;43.20;17.58;;;;;;;;;;4990399;28;20497;-64
2021/11/16 05:51:13;;;;;;;40.20;17.13;;;;;;;;;;4988412;28;20490;-64
2021/11/16 05:53:43;;;;;;;44.58;18.00;;;;;;;;;;4985237;28;20029;-65
2021/11/16 05:56:08;;;;;;;39.78;17.77;;;;;;;;;;4984271;28;20022;-65
2021/11/16 05:58:33;;;;;;;36.78;16.38;;;;;;;;;;4972930;28;20029;-64
2021/11/16 06:00:59;;;;;;;35.83;15.65;;;;;;;;;;4970431;28;20033;-65
2021/11/16 06:03:25;;;;;;;47.30;17.40;;;;;;;;;;4969667;28;20029;-66
2021/11/16 06:05:50;;;;;;;43.22;16.75;;;;;;;;;;4970258;28;20503;-64
2021/11/16 06:08:22;;;;;;;33.53;11.88;;;;;;;;;;4970400;28;20035;-65
2021/11/16 06:10:48;;;;;;;40.95;15.82;;;;;;;;;;4970260;28;20443;-64
2021/11/16 06:13:13;;;;;;;41.53;16.52;;;;;;;;;;4969421;28;20015;-65
2021/11/16 06:15:38;;;;;;;42.90;16.67;;;;;;;;;;4973921;28;20093;-65
2021/11/16 06:18:03;;;;;;;39.00;16.35;;;;;;;;;;4970250;28;20030;-65
2021/11/16 06:20:30;;;;;;;35.38;14.68;;;;;;;;;;4969458;28;20388;-64
2021/11/16 06:22:55;;;;;;;35.60;15.35;;;;;;;;;;4969385;28;20034;-65
2021/11/16 06:25:20;;;;;;;39.08;15.48;;;;;;;;;;4969614;28;20038;-64
2021/11/16 06:27:45;;;;;;;41.83;15.52;;;;;;;;;;4969577;28;20022;-64
2021/11/16 06:30:11;;;;;;;32.80;14.80;;;;;;;;;;4969167;28;20074;-64
2021/11/16 06:32:36;;;;;;;38.60;14.38;;;;;;;;;;4969254;28;20487;-65
2021/11/16 06:35:01;;;;;;;38.08;16.48;;;;;;;;;;4969680;28;20113;-67
2021/11/16 06:37:27;;;;;;;38.47;15.98;;;;;;;;;;4970007;28;20037;-67
2021/11/16 06:39:52;;;;;;;43.55;17.48;;;;;;;;;;4966797;28;20113;-67
2021/11/16 06:42:17;;;;;;;41.03;15.48;;;;;;;;;;4986599;28;20483;-67
2021/11/16 06:44:43;;;;;;;46.30;16.33;;;;;;;;;;4969500;28;20109;-67
2021/11/16 06:47:18;;;;;;;41.97;17.52;;;;;;;;;;4969671;28;20471;-65
2021/11/16 06:49:48;;;;;;;37.75;15.52;;;;;;;;;;4969006;28;20073;-64
2021/11/16 06:52:14;;;;;;;38.22;14.82;;;;;;;;;;4968228;28;20029;-65
2021/11/16 06:54:39;;;;;;;37.47;16.40;;;;;;;;;;4975425;28;20022;-67
2021/11/16 06:57:04;;;;;;;34.60;16.05;;;;;;;;;;4971634;28;20060;-68
2021/11/16 06:59:30;;;;;;;41.47;16.80;;;;;;;;;;4969182;28;20066;-67
2021/11/16 07:01:55;;;;;;;39.20;15.52;;;;;;;;;;4968751;28;20019;-68
2021/11/16 07:04:20;;;;;;;38.35;16.52;;;;;;;;;;4969007;28;20044;-66
2021/11/16 07:06:47;;;;;;;40.30;17.98;;;;;;;;;;4967219;28;20019;-65
2021/11/16 07:09:14;;;;;;;42.28;16.58;;;;;;;;;;4976775;28;20019;-67
2021/11/16 07:11:50;;;;;;;44.47;17.15;;;;;;;;;;4980287;28;20025;-67
2021/11/16 07:14:16;;;;;;;41.22;17.52;;;;;;;;;;4974278;28;20023;-66
2021/11/16 07:16:43;;;;;;;40.47;17.83;;;;;;;;;;4971523;28;20298;-66
2021/11/16 07:19:09;;;;;;;41.22;17.38;;;;;;;;;;4970237;28;20026;-65
2021/11/16 07:21:48;;;;;;;36.42;16.20;;;;;;;;;;4969810;28;20073;-67
2021/11/16 07:24:21;;;;;;;41.40;17.15;;;;;;;;;;4970107;28;20027;-68
2021/11/16 07:27:05;;;;;;;39.22;15.95;;;;;;;;;;4971999;28;20033;-68
2021/11/16 07:29:42;;;;;;;46.08;18.65;;;;;;;;;;4969835;28;20046;-68
2021/11/16 07:32:10;;;;;;;42.30;17.08;;;;;;;;;;4971786;28;20034;-65
2021/11/16 07:34:37;;;;;;;42.30;17.45;;;;;;;;;;4974998;28;20106;-65
2021/11/16 07:37:05;;;;;;;46.88;19.20;;;;;;;;;;4977831;28;20029;-65
2021/11/16 07:39:42;;;;;;;38.92;17.15;;;;;;;;;;4978496;28;20472;-65
2021/11/16 07:42:08;;;;;;;39.55;16.85;;;;;;;;;;4973537;28;20042;-65
2021/11/16 07:44:33;;;;;;;46.40;17.95;;;;;;;;;;4974646;28;20120;-65
2021/11/16 07:46:59;;;;;;;39.30;17.58;;;;;;;;;;4974340;28;20035;-66
2021/11/16 07:49:24;;;;;;;46.35;19.15;;;;;;;;;;4974913;28;20018;-65
2021/11/16 07:51:50;;;;;;;42.50;18.63;;;;;;;;;;4974992;28;20019;-65
2021/11/16 07:54:23;;;;;;;42.45;17.80;;;;;;;;;;4974504;28;20124;-65
2021/11/16 07:56:48;;;;;;;44.85;18.60;;;;;;;;;;4978550;28;20034;-64
2021/11/16 07:59:14;;;;;;;50.15;18.20;;;;;;;;;;4981785;28;20027;-65
2021/11/16 08:01:42;;;;;;;48.47;18.90;;;;;;;;;;4975084;28;20061;-65
2021/11/16 08:04:33;;;;;;;50.50;17.27;;;;;;;;;;4982799;28;20018;-65
2021/11/16 08:12:07;;;;;;;43.60;18.95;;;;;;;;;;4981466;28;20099;-67
2021/11/16 08:14:35;;;;;;;44.30;18.52;;;;;;;;;;4996936;28;20109;-66
2021/11/16 08:17:00;;;;;;;47.90;18.10;;;;;;;;;;4988859;28;20109;-66
2021/11/16 08:19:30;;;;;;;49.75;18.23;;;;;;;;;;4984102;28;20462;-66
2021/11/16 08:21:57;;;;;;;43.40;16.60;;;;;;;;;;4975561;28;20019;-66
2021/11/16 08:24:23;;;;;;;45.22;18.77;;;;;;;;;;4975176;28;20065;-66
2021/11/16 08:26:50;;;;;;;54.22;19.25;;;;;;;;;;4848660;28;20079;-65
2021/11/16 08:29:22;;;;;;;55.10;20.60;;;;;;;;;;4859381;28;20022;-65
2021/11/16 08:31:48;;;;;;;45.25;18.00;;;;;;;;;;4985948;28;20351;-66
2021/11/16 08:34:14;;;;;;;50.47;19.05;;;;;;;;;;4980583;28;20434;-66
2021/11/16 08:36:50;;;;;;;52.90;19.23;;;;;;;;;;4974137;28;20037;-66
2021/11/16 08:39:17;;;;;;;45.08;17.30;;;;;;;;;;4973997;28;20150;-65
2021/11/16 08:41:42;;;;;;;48.60;18.88;;;;;;;;;;4978755;28;20030;-66
2021/11/16 08:44:08;;;;;;;50.50;19.00;;;;;;;;;;4974254;28;20223;-66
2021/11/16 08:46:34;;;;;;;56.45;19.83;;;;;;;;;;4976127;28;20077;-65
2021/11/16 08:48:59;;;;;;;47.58;18.50;;;;;;;;;;4974396;28;20027;-66
2021/11/16 08:51:27;;;;;;;54.00;19.05;;;;;;;;;;4974658;28;20038;-66
2021/11/16 08:53:52;;;;;;;45.58;17.40;;;;;;;;;;4984679;28;20027;-66
2021/11/16 08:56:18;;;;;;;45.45;17.52;;;;;;;;;;4990963;28;20370;-66
2021/11/16 08:58:44;;;;;;;44.35;17.15;;;;;;;;;;4986019;28;20130;-65
2021/11/16 09:01:09;;;;;;;46.95;17.63;;;;;;;;;;4980519;28;20554;-66
2021/11/16 09:03:42;;;;;;;41.47;15.52;;;;;;;;;;4980352;28;20026;-66
2021/11/16 09:06:14;;;;;;;43.08;17.60;;;;;;;;;;4980893;28;20018;-66
2021/11/16 09:08:39;;;;;;;43.78;17.27;;;;;;;;;;4991895;28;20030;-66
2021/11/16 09:11:16;;;;;;;42.22;16.85;;;;;;;;;;4991519;28;20019;-66
2021/11/16 09:13:42;;;;;;;40.67;15.65;;;;;;;;;;4979265;28;20109;-66
2021/11/16 09:16:14;;;;;;;43.22;16.52;;;;;;;;;;4974581;28;20102;-66
2021/11/16 09:18:43;;;;;;;42.42;16.73;;;;;;;;;;4984071;28;20487;-66
2021/11/16 09:21:10;;;;;;;39.72;14.88;;;;;;;;;;4992012;28;20391;-66
2021/11/16 09:23:56;;;;;;;45.33;16.67;;;;;;;;;;4990559;28;20109;-66
2021/11/16 09:28:55;;;;;;;42.55;14.70;;;;;;;;;;4987079;28;20044;-66
2021/11/16 09:31:25;;;;;;;42.28;17.33;;;;;;;;;;4976161;28;20141;-66
2021/11/16 09:33:51;;;;;;;50.10;15.35;;;;;;;;;;4977927;28;20053;-66
2021/11/16 09:36:21;;;;;;;31.88;12.85;;;;;;;;;;4981926;28;20065;-66
2021/11/16 09:38:49;;;;;;;40.45;15.90;;;;;;;;;;4984623;28;20029;-66
2021/11/16 09:41:19;;;;;;;43.97;15.07;;;;;;;;;;4989913;28;20117;-66
2021/11/16 09:43:45;;;;;;;36.70;14.73;;;;;;;;;;4973139;28;20431;-66
2021/11/16 09:46:12;;;;;;;38.53;14.88;;;;;;;;;;4978720;28;20105;-66
2021/11/16 09:48:39;;;;;;;41.72;15.00;;;;;;;;;;4984434;28;20022;-66
2021/11/16 09:51:12;;;;;;;39.60;14.20;;;;;;;;;;4983402;28;20028;-66
2021/11/16 09:53:37;;;;;;;43.42;15.50;;;;;;;;;;4991626;28;20102;-66
2021/11/16 09:56:04;;;;;;;37.25;14.23;;;;;;;;;;4983446;28;20042;-66
2021/11/16 09:58:33;;;;;;;38.67;14.88;;;;;;;;;;4996703;28;20105;-66
2021/11/16 10:00:58;;;;;;;38.42;15.02;;;;;;;;;;4977583;28;20080;-66
2021/11/16 10:03:24;;;;;;;40.25;14.48;;;;;;;;;;4982969;28;20535;-66
2021/11/16 10:05:53;;;;;;;35.35;13.88;;;;;;;;;;4973643;28;20023;-66
2021/11/16 10:08:19;;;;;;;38.03;14.23;;;;;;;;;;4977446;28;20061;-66
2021/11/16 10:10:47;;;;;;;44.38;16.45;;;;;;;;;;4981902;28;20478;-65
2021/11/16 10:13:14;;;;;;;43.53;15.48;;;;;;;;;;4983417;28;20395;-66
2021/11/16 10:15:41;;;;;;;40.60;15.30;;;;;;;;;;4973480;28;20483;-66
2021/11/16 10:18:07;;;;;;;40.70;13.98;;;;;;;;;;4984404;28;20402;-66
2021/11/16 10:20:34;;;;;;;37.80;14.23;;;;;;;;;;4987705;28;20022;-66
2021/11/16 10:23:00;;;;;;;33.45;12.60;;;;;;;;;;4990251;28;20019;-66
2021/11/16 10:25:27;;;;;;;44.13;15.32;;;;;;;;;;4981120;28;20329;-66
2021/11/16 10:27:54;;;;;;;38.88;15.05;;;;;;;;;;4985164;28;20482;-66
2021/11/16 10:30:22;;;;;;;40.28;12.88;;;;;;;;;;4989143;28;20010;-66
2021/11/16 10:33:07;;;;;;;35.58;13.75;;;;;;;;;;4977156;28;20023;-66
2021/11/16 10:35:32;;;;;;;39.60;14.35;;;;;;;;;;4973029;28;20019;-66
2021/11/16 10:37:58;;;;;;;42.17;13.93;;;;;;;;;;4984866;28;20065;-66
2021/11/16 10:40:25;;;;;;;32.80;14.90;;;;;;;;;;4977613;28;20411;-66
2021/11/16 10:42:52;;;;;;;46.42;12.85;;;;;;;;;;4977403;28;20023;-66
2021/11/16 10:45:18;;;;;;;45.60;15.48;;;;;;;;;;4972805;28;20027;-66
2021/11/16 10:47:47;;;;;;;40.67;14.77;;;;;;;;;;4978153;28;20072;-66
2021/11/16 10:50:15;;;;;;;40.83;13.98;;;;;;;;;;4983488;28;20014;-66
2021/11/16 10:52:40;;;;;;;37.47;13.57;;;;;;;;;;4974826;28;20019;-66
2021/11/16 10:55:06;;;;;;;38.85;14.38;;;;;;;;;;4988815;28;20025;-66
2021/11/16 10:57:51;;;;;;;33.38;13.07;;;;;;;;;;4987192;28;20023;-66
2021/11/16 11:00:27;;;;;;;33.30;12.18;;;;;;;;;;4982036;28;20033;-66
2021/11/16 11:03:11;;;;;;;31.58;11.85;;;;;;;;;;4990678;28;20022;-66
2021/11/16 11:05:36;;;;;;;30.27;10.88;;;;;;;;;;4972866;28;20106;-66
2021/11/16 11:08:01;;;;;;;25.75;9.60;;;;;;;;;;4971583;28;20458;-66
2021/11/16 11:10:39;;;;;;;34.65;11.35;;;;;;;;;;4983923;28;20031;-66
2021/11/16 11:13:17;;;;;;;33.08;12.77;;;;;;;;;;4977348;28;20031;-66
2021/11/16 11:15:42;;;;;;;11.32;4.38;;;;;;;;;;4984375;28;20034;-66
2021/11/16 11:18:07;;;;;;;32.28;12.52;;;;;;;;;;4984889;28;20034;-66
2021/11/16 11:20:39;;;;;;;31.80;12.05;;;;;;;;;;4977479;28;20106;-66
2021/11/16 11:23:23;;;;;;;36.03;13.88;;;;;;;;;;4979399;28;20518;-66
2021/11/16 11:25:50;;;;;;;13.85;4.57;;;;;;;;;;4979562;28;20033;-66
2021/11/16 11:28:34;;;;;;;32.05;13.45;;;;;;;;;;4971466;28;20049;-66
2021/11/16 11:30:59;;;;;;;33.58;12.35;;;;;;;;;;4974917;28;20106;-66
2021/11/16 11:33:44;;;;;;;34.90;13.13;;;;;;;;;;4990107;28;20496;-66
2021/11/16 11:36:23;;;;;;;29.35;11.10;;;;;;;;;;4987506;28;20077;-65
2021/11/16 11:38:48;;;;;;;25.38;8.27;;;;;;;;;;4986416;28;20014;-66
2021/11/16 11:41:14;;;;;;;28.00;9.90;;;;;;;;;;4990056;28;20153;-66
2021/11/16 11:43:39;;;;;;;24.00;10.13;;;;;;;;;;4978549;28;20026;-66
2021/11/16 11:46:05;;;;;;;28.77;12.23;;;;;;;;;;4982023;28;20097;-66
2021/11/16 11:48:30;;;;;;;30.55;13.07;;;;;;;;;;4989449;28;20057;-66
2021/11/16 11:50:56;;;;;;;26.60;11.15;;;;;;;;;;4990647;28;20021;-65
2021/11/16 11:53:23;;;;;;;28.98;9.70;;;;;;;;;;4988649;28;20459;-66
2021/11/16 11:55:50;;;;;;;29.65;11.25;;;;;;;;;;4974942;28;20029;-65
2021/11/16 11:58:17;;;;;;;33.80;11.52;;;;;;;;;;4989258;28;20060;-66
2021/11/16 12:00:43;;;;;;;36.50;13.50;;;;;;;;;;4980815;28;20022;-66
2021/11/16 12:03:09;;;;;;;34.78;13.43;;;;;;;;;;4972489;28;20030;-66
2021/11/16 12:05:35;;;;;;;36.17;13.75;;;;;;;;;;4985664;28;20194;-66
2021/11/16 12:08:01;;;;;;;37.47;14.82;;;;;;;;;;4982405;28;20023;-66
2021/11/16 12:10:26;;;;;;;30.48;10.48;;;;;;;;;;4981283;28;20073;-66
2021/11/16 12:12:52;;;;;;;32.53;12.95;;;;;;;;;;4990507;28;20035;-66
2021/11/16 12:15:41;;;;;;;38.08;12.18;;;;;;;;;;4987379;28;20114;-66
2021/11/16 12:18:06;;;;;;;29.30;11.25;;;;;;;;;;4971236;28;20039;-66
2021/11/16 12:20:55;;;;;;;34.78;14.40;;;;;;;;;;4982213;28;20092;-66
2021/11/16 12:23:38;;;;;;;37.70;15.45;;;;;;;;;;4993132;28;20034;-66
2021/11/16 12:26:07;;;;;;;33.88;12.18;;;;;;;;;;4984715;28;20019;-66
2021/11/16 12:28:32;;;;;;;37.95;14.18;;;;;;;;;;4979371;28;20154;-66
2021/11/16 12:30:59;;;;;;;27.15;9.73;;;;;;;;;;4983210;28;20487;-66
2021/11/16 12:33:50;;;;;;;28.58;10.80;;;;;;;;;;4988917;28;20023;-66
2021/11/16 12:36:17;;;;;;;36.33;14.73;;;;;;;;;;4991205;28;20034;-66
2021/11/16 12:38:47;;;;;;;35.03;14.82;;;;;;;;;;4991559;28;20018;-66
2021/11/16 12:41:31;;;;;;;40.05;15.90;;;;;;;;;;4989422;28;20066;-66
2021/11/16 12:43:58;;;;;;;30.98;12.23;;;;;;;;;;4977153;28;20033;-66
2021/11/16 12:46:24;;;;;;;38.38;13.60;;;;;;;;;;4992327;28;20022;-66
2021/11/16 12:48:55;;;;;;;39.05;14.45;;;;;;;;;;4990639;28;20069;-66
2021/11/16 12:51:21;;;;;;;37.67;14.50;;;;;;;;;;4987799;28;20068;-66
2021/11/16 12:53:46;;;;;;;36.60;15.57;;;;;;;;;;4982642;28;20030;-66
2021/11/16 12:56:11;;;;;;;32.80;12.85;;;;;;;;;;4985792;28;20472;-66
2021/11/16 12:58:47;;;;;;;32.33;12.13;;;;;;;;;;4974301;28;20266;-66
2021/11/16 13:01:31;;;;;;;36.53;12.10;;;;;;;;;;4977255;28;20068;-66
2021/11/16 13:03:57;;;;;;;31.88;13.35;;;;;;;;;;4975287;28;20093;-66
2021/11/16 13:06:23;;;;;;;33.25;13.13;;;;;;;;;;4976775;28;20053;-65
2021/11/16 13:08:49;;;;;;;32.25;12.10;;;;;;;;;;4977261;28;20026;-66
2021/11/16 13:11:34;;;;;;;27.50;11.90;;;;;;;;;;4974440;28;20046;-65
2021/11/16 13:13:59;;;;;;;33.90;13.82;;;;;;;;;;4985509;28;20030;-66
2021/11/16 13:16:25;;;;;;;30.90;13.10;;;;;;;;;;4979862;28;20510;-66
2021/11/16 13:18:54;;;;;;;33.72;13.20;;;;;;;;;;4982875;28;20261;-66
2021/11/16 13:21:20;;;;;;;35.15;12.75;;;;;;;;;;4991807;28;20036;-66
2021/11/16 13:23:50;;;;;;;30.42;12.98;;;;;;;;;;4988867;28;20048;-66
2021/11/16 13:26:27;;;;;;;41.72;13.70;;;;;;;;;;4979907;28;20610;-65
2021/11/16 13:29:19;;;;;;;27.15;9.85;;;;;;;;;;4991924;28;20019;-66
2021/11/16 13:31:44;;;;;;;27.92;10.60;;;;;;;;;;4973071;28;20111;-66
2021/11/16 13:34:14;;;;;;;30.80;11.38;;;;;;;;;;4985840;28;20022;-66
2021/11/16 13:36:39;;;;;;;29.10;11.35;;;;;;;;;;4977351;28;20027;-66
2021/11/16 13:39:10;;;;;;;26.13;10.63;;;;;;;;;;4976401;28;20033;-66
2021/11/16 13:41:38;;;;;;;26.77;11.50;;;;;;;;;;4979676;28;20273;-66
2021/11/16 13:44:12;;;;;;;33.58;11.00;;;;;;;;;;4973990;28;20026;-66
2021/11/16 13:46:38;;;;;;;25.85;11.55;;;;;;;;;;4979500;28;20495;-66
2021/11/16 13:49:03;;;;;;;23.73;10.73;;;;;;;;;;4982921;28;20023;-66
2021/11/16 13:51:29;;;;;;;30.00;10.95;;;;;;;;;;4979296;28;20361;-66
2021/11/16 13:54:00;;;;;;;23.50;9.75;;;;;;;;;;4987159;28;20038;-66
2021/11/16 13:56:26;;;;;;;28.38;11.15;;;;;;;;;;4974012;28;20066;-65
2021/11/16 13:58:51;;;;;;;32.08;9.10;;;;;;;;;;4985339;28;20104;-66
2021/11/16 14:01:26;;;;;;;25.02;9.63;;;;;;;;;;4984611;28;20113;-66
2021/11/16 14:04:06;;;;;;;25.90;8.25;;;;;;;;;;4974527;28;20025;-66
2021/11/16 14:06:31;;;;;;;28.90;10.32;;;;;;;;;;5000308;28;20372;-66
2021/11/16 14:08:56;;;;;;;22.17;9.55;;;;;;;;;;4980157;28;20015;-66
2021/11/16 14:11:21;;;;;;;23.20;9.32;;;;;;;;;;4974349;28;20023;-66
2021/11/16 14:13:47;;;;;;;25.25;9.25;;;;;;;;;;4972364;28;20031;-66
2021/11/16 14:16:14;;;;;;;20.70;9.93;;;;;;;;;;4989851;28;20064;-66
2021/11/16 14:18:40;;;;;;;22.50;9.63;;;;;;;;;;4999380;28;20023;-66
2021/11/16 14:21:13;;;;;;;25.42;10.10;;;;;;;;;;4984379;28;20015;-66
2021/11/16 14:23:40;;;;;;;25.50;10.90;;;;;;;;;;4978637;28;20027;-66
2021/11/16 14:26:07;;;;;;;25.02;10.57;;;;;;;;;;4989170;28;20048;-66
2021/11/16 14:28:33;;;;;;;28.30;8.98;;;;;;;;;;4988890;28;20072;-65
2021/11/16 14:31:11;;;;;;;23.80;8.27;;;;;;;;;;4989271;28;20018;-66
2021/11/16 14:33:44;;;;;;;23.60;10.02;;;;;;;;;;4991107;28;20030;-66
2021/11/16 14:36:09;;;;;;;26.40;8.98;;;;;;;;;;4980664;28;20023;-66
2021/11/16 14:38:36;;;;;;;23.17;10.18;;;;;;;;;;4978430;28;20491;-66
2021/11/16 14:41:09;;;;;;;26.98;11.70;;;;;;;;;;4975076;28;20026;-66